sensor_id;sensor_type;location;lat;lon;timestamp;P1;durP1;ratioP1;P2;durP2;ratioP2
25129;SDS011;13308;50.860;13.664;2023-02-15T06:57:14;1.95;;;0.95;;
25129;SDS011;13308;50.860;13.664;2023-02-15T06:59:39;1.50;;;1.40;;
25129;SDS011;13308;50.860;13.664;2023-02-15T07:02:05;1.70;;;1.08;;
25129;SDS011;13308;50.860;13.664;2023-02-15T07:04:30;1.63;;;1.08;;
25129;SDS011;13308;50.860;13.664;2023-02-15T07:06:56;3.03;;;1.70;;
25129;SDS011;13308;50.860;13.664;2023-02-15T07:09:21;2.08;;;1.50;;
25129;SDS011;13308;50.860;13.664;2023-02-15T07:11:47;2.45;;;1.50;;
25129;SDS011;13308;50.860;13.664;2023-02-15T07:14:30;1.30;;;1.08;;
25129;SDS011;13308;50.860;13.664;2023-02-15T07:16:56;1.35;;;1.10;;
25129;SDS011;13308;50.860;13.664;2023-02-15T07:19:22;5.70;;;1.60;;
25129;SDS011;13308;50.860;13.664;2023-02-15T07:21:47;1.60;;;1.30;;
25129;SDS011;13308;50.860;13.664;2023-02-15T07:24:13;1.17;;;1.08;;
25129;SDS011;13308;50.860;13.664;2023-02-15T07:26:39;1.92;;;1.58;;
25129;SDS011;13308;50.860;13.664;2023-02-15T07:29:04;1.58;;;1.33;;
25129;SDS011;13308;50.860;13.664;2023-02-15T07:31:29;4.65;;;1.35;;
25129;SDS011;13308;50.860;13.664;2023-02-15T07:33:55;1.95;;;1.20;;
25129;SDS011;13308;50.860;13.664;2023-02-15T07:36:20;2.03;;;1.67;;
25129;SDS011;13308;50.860;13.664;2023-02-15T07:38:45;1.75;;;1.30;;
25129;SDS011;13308;50.860;13.664;2023-02-15T07:41:12;4.75;;;1.30;;
25129;SDS011;13308;50.860;13.664;2023-02-15T07:43:39;1.27;;;1.10;;
25129;SDS011;13308;50.860;13.664;2023-02-15T07:46:10;2.00;;;1.38;;
25129;SDS011;13308;50.860;13.664;2023-02-15T07:48:38;3.30;;;1.67;;
25129;SDS011;13308;50.860;13.664;2023-02-15T07:51:05;1.80;;;1.50;;
25129;SDS011;13308;50.860;13.664;2023-02-15T07:53:33;1.83;;;1.52;;
25129;SDS011;13308;50.860;13.664;2023-02-15T07:56:03;3.50;;;1.67;;
25129;SDS011;13308;50.860;13.664;2023-02-15T07:58:30;2.42;;;1.40;;
25129;SDS011;13308;50.860;13.664;2023-02-15T08:01:14;2.17;;;1.55;;
25129;SDS011;13308;50.860;13.664;2023-02-15T08:03:40;2.58;;;1.60;;
25129;SDS011;13308;50.860;13.664;2023-02-15T08:06:05;1.73;;;1.60;;
25129;SDS011;13308;50.860;13.664;2023-02-15T08:08:33;1.60;;;1.48;;
25129;SDS011;13308;50.860;13.664;2023-02-15T08:11:03;1.58;;;1.38;;
25129;SDS011;13308;50.860;13.664;2023-02-15T08:14:11;1.60;;;1.35;;
25129;SDS011;13308;50.860;13.664;2023-02-15T08:16:47;2.22;;;1.50;;
25129;SDS011;13308;50.860;13.664;2023-02-15T08:21:48;1.98;;;1.35;;
25129;SDS011;13308;50.860;13.664;2023-02-15T08:24:21;2.22;;;1.15;;
25129;SDS011;13308;50.860;13.664;2023-02-15T08:26:49;3.22;;;1.77;;
25129;SDS011;13308;50.860;13.664;2023-02-15T08:29:15;4.05;;;1.85;;
25129;SDS011;13308;50.860;13.664;2023-02-15T08:31:43;3.35;;;1.70;;
25129;SDS011;13308;50.860;13.664;2023-02-15T08:34:09;2.00;;;1.73;;
25129;SDS011;13308;50.860;13.664;2023-02-15T08:36:38;3.05;;;1.80;;
25129;SDS011;13308;50.860;13.664;2023-02-15T08:39:04;1.77;;;1.40;;
25129;SDS011;13308;50.860;13.664;2023-02-15T08:41:31;1.85;;;1.42;;
25129;SDS011;13308;50.860;13.664;2023-02-15T08:44:00;2.55;;;1.60;;
25129;SDS011;13308;50.860;13.664;2023-02-15T08:46:27;6.90;;;2.80;;
25129;SDS011;13308;50.860;13.664;2023-02-15T08:48:55;6.10;;;2.65;;
25129;SDS011;13308;50.860;13.664;2023-02-15T08:51:39;3.70;;;2.55;;
25129;SDS011;13308;50.860;13.664;2023-02-15T08:54:05;4.47;;;2.42;;
25129;SDS011;13308;50.860;13.664;2023-02-15T08:56:35;3.50;;;2.05;;
25129;SDS011;13308;50.860;13.664;2023-02-15T08:59:03;2.13;;;1.67;;
25129;SDS011;13308;50.860;13.664;2023-02-15T09:01:29;3.60;;;1.95;;
25129;SDS011;13308;50.860;13.664;2023-02-15T09:03:57;6.45;;;1.70;;
25129;SDS011;13308;50.860;13.664;2023-02-15T09:06:24;3.17;;;2.20;;
25129;SDS011;13308;50.860;13.664;2023-02-15T09:08:50;2.22;;;1.90;;
25129;SDS011;13308;50.860;13.664;2023-02-15T09:11:17;2.90;;;1.80;;
25129;SDS011;13308;50.860;13.664;2023-02-15T09:13:54;3.50;;;1.83;;
25129;SDS011;13308;50.860;13.664;2023-02-15T09:16:24;2.50;;;2.17;;
25129;SDS011;13308;50.860;13.664;2023-02-15T09:18:51;2.40;;;2.08;;
25129;SDS011;13308;50.860;13.664;2023-02-15T09:21:21;2.25;;;1.92;;
25129;SDS011;13308;50.860;13.664;2023-02-15T09:23:49;2.80;;;2.13;;
25129;SDS011;13308;50.860;13.664;2023-02-15T09:26:17;2.60;;;2.05;;
25129;SDS011;13308;50.860;13.664;2023-02-15T09:28:46;2.42;;;2.10;;
25129;SDS011;13308;50.860;13.664;2023-02-15T09:33:40;3.63;;;2.40;;
25129;SDS011;13308;50.860;13.664;2023-02-15T09:36:14;8.88;;;6.30;;
25129;SDS011;13308;50.860;13.664;2023-02-15T09:38:39;46.50;;;31.63;;
25129;SDS011;13308;50.860;13.664;2023-02-15T09:41:21;18.83;;;13.13;;
25129;SDS011;13308;50.860;13.664;2023-02-15T09:52:42;16.45;;;10.80;;
25129;SDS011;13308;50.860;13.664;2023-02-15T09:55:48;7.25;;;6.55;;
25129;SDS011;13308;50.860;13.664;2023-02-15T10:01:18;3.00;;;2.70;;
25129;SDS011;13308;50.860;13.664;2023-02-15T10:04:00;4.95;;;2.70;;
25129;SDS011;13308;50.860;13.664;2023-02-15T10:12:05;3.72;;;3.08;;
25129;SDS011;13308;50.860;13.664;2023-02-15T10:17:52;5.40;;;2.80;;
25129;SDS011;13308;50.860;13.664;2023-02-15T10:23:31;5.03;;;3.55;;
25129;SDS011;13308;50.860;13.664;2023-02-15T10:26:16;5.63;;;4.10;;
25129;SDS011;13308;50.860;13.664;2023-02-15T10:28:49;5.63;;;3.08;;
25129;SDS011;13308;50.860;13.664;2023-02-15T10:37:17;4.90;;;4.32;;
25129;SDS011;13308;50.860;13.664;2023-02-15T10:45:35;7.85;;;4.65;;
25129;SDS011;13308;50.860;13.664;2023-02-15T10:51:19;11.77;;;5.60;;
25129;SDS011;13308;50.860;13.664;2023-02-15T10:56:57;5.95;;;3.80;;
25129;SDS011;13308;50.860;13.664;2023-02-15T10:59:58;5.93;;;3.95;;
25129;SDS011;13308;50.860;13.664;2023-02-15T11:03:10;3.83;;;3.42;;
25129;SDS011;13308;50.860;13.664;2023-02-15T11:06:07;4.70;;;2.50;;
25129;SDS011;13308;50.860;13.664;2023-02-15T11:08:57;3.53;;;2.45;;
25129;SDS011;13308;50.860;13.664;2023-02-15T11:11:28;4.55;;;2.22;;
25129;SDS011;13308;50.860;13.664;2023-02-15T11:13:58;4.78;;;2.65;;
25129;SDS011;13308;50.860;13.664;2023-02-15T11:16:37;4.07;;;2.63;;
25129;SDS011;13308;50.860;13.664;2023-02-15T11:19:11;2.22;;;2.03;;
25129;SDS011;13308;50.860;13.664;2023-02-15T11:21:45;2.90;;;2.60;;
25129;SDS011;13308;50.860;13.664;2023-02-15T11:24:16;2.97;;;1.83;;
25129;SDS011;13308;50.860;13.664;2023-02-15T11:26:44;2.53;;;2.13;;
25129;SDS011;13308;50.860;13.664;2023-02-15T11:29:21;3.03;;;2.30;;
25129;SDS011;13308;50.860;13.664;2023-02-15T11:31:53;2.65;;;2.22;;
25129;SDS011;13308;50.860;13.664;2023-02-15T11:34:25;2.28;;;2.05;;
25129;SDS011;13308;50.860;13.664;2023-02-15T11:36:55;5.75;;;2.53;;
25129;SDS011;13308;50.860;13.664;2023-02-15T11:39:23;14.82;;;7.78;;
25129;SDS011;13308;50.860;13.664;2023-02-15T11:41:53;4.22;;;3.75;;
25129;SDS011;13308;50.860;13.664;2023-02-15T11:44:26;6.25;;;5.10;;
25129;SDS011;13308;50.860;13.664;2023-02-15T11:46:57;4.78;;;2.50;;
25129;SDS011;13308;50.860;13.664;2023-02-15T11:49:30;5.40;;;4.18;;
25129;SDS011;13308;50.860;13.664;2023-02-15T11:51:58;3.15;;;2.80;;
25129;SDS011;13308;50.860;13.664;2023-02-15T11:54:30;2.65;;;2.20;;
25129;SDS011;13308;50.860;13.664;2023-02-15T11:56:59;6.03;;;2.63;;
25129;SDS011;13308;50.860;13.664;2023-02-15T11:59:40;3.00;;;2.30;;
25129;SDS011;13308;50.860;13.664;2023-02-15T12:02:16;3.78;;;2.97;;
25129;SDS011;13308;50.860;13.664;2023-02-15T12:04:46;3.65;;;2.63;;
25129;SDS011;13308;50.860;13.664;2023-02-15T12:07:20;3.15;;;2.75;;
25129;SDS011;13308;50.860;13.664;2023-02-15T12:12:30;7.03;;;3.67;;
25129;SDS011;13308;50.860;13.664;2023-02-15T12:15:01;4.95;;;3.95;;
25129;SDS011;13308;50.860;13.664;2023-02-15T12:17:30;4.95;;;3.60;;
25129;SDS011;13308;50.860;13.664;2023-02-15T12:20:06;6.50;;;4.05;;
25129;SDS011;13308;50.860;13.664;2023-02-15T12:22:46;4.72;;;3.78;;
25129;SDS011;13308;50.860;13.664;2023-02-15T12:25:23;4.57;;;4.03;;
25129;SDS011;13308;50.860;13.664;2023-02-15T12:27:54;4.50;;;3.92;;
25129;SDS011;13308;50.860;13.664;2023-02-15T12:30:25;5.07;;;4.40;;
25129;SDS011;13308;50.860;13.664;2023-02-15T12:32:56;5.05;;;4.55;;
25129;SDS011;13308;50.860;13.664;2023-02-15T12:35:31;4.85;;;4.35;;
25129;SDS011;13308;50.860;13.664;2023-02-15T12:40:29;5.47;;;4.78;;
25129;SDS011;13308;50.860;13.664;2023-02-15T12:42:56;5.97;;;5.20;;
25129;SDS011;13308;50.860;13.664;2023-02-15T12:48:08;8.73;;;5.93;;
25129;SDS011;13308;50.860;13.664;2023-02-15T12:50:46;6.63;;;5.30;;
25129;SDS011;13308;50.860;13.664;2023-02-15T12:53:15;5.35;;;4.85;;
25129;SDS011;13308;50.860;13.664;2023-02-15T12:55:55;5.65;;;4.72;;
25129;SDS011;13308;50.860;13.664;2023-02-15T12:58:31;6.60;;;4.85;;
25129;SDS011;13308;50.860;13.664;2023-02-15T13:01:17;5.57;;;4.90;;
25129;SDS011;13308;50.860;13.664;2023-02-15T13:04:01;5.63;;;4.82;;
25129;SDS011;13308;50.860;13.664;2023-02-15T13:06:31;5.35;;;4.85;;
25129;SDS011;13308;50.860;13.664;2023-02-15T13:09:14;6.45;;;5.07;;
25129;SDS011;13308;50.860;13.664;2023-02-15T13:11:42;6.25;;;4.60;;
25129;SDS011;13308;50.860;13.664;2023-02-15T13:16:58;6.00;;;4.88;;
25129;SDS011;13308;50.860;13.664;2023-02-15T13:19:29;5.90;;;4.97;;
25129;SDS011;13308;50.860;13.664;2023-02-15T13:22:00;7.65;;;5.28;;
25129;SDS011;13308;50.860;13.664;2023-02-15T13:24:32;6.95;;;5.50;;
25129;SDS011;13308;50.860;13.664;2023-02-15T13:27:02;6.82;;;6.13;;
25129;SDS011;13308;50.860;13.664;2023-02-15T13:29:29;7.07;;;5.65;;
25129;SDS011;13308;50.860;13.664;2023-02-15T13:32:00;8.32;;;5.63;;
25129;SDS011;13308;50.860;13.664;2023-02-15T13:34:50;8.30;;;6.43;;
25129;SDS011;13308;50.860;13.664;2023-02-15T13:37:32;11.60;;;9.48;;
25129;SDS011;13308;50.860;13.664;2023-02-15T13:40:15;13.45;;;10.98;;
25129;SDS011;13308;50.860;13.664;2023-02-15T13:42:49;9.02;;;7.93;;
25129;SDS011;13308;50.860;13.664;2023-02-15T13:45:27;9.70;;;7.20;;
25129;SDS011;13308;50.860;13.664;2023-02-15T13:48:15;7.63;;;6.85;;
25129;SDS011;13308;50.860;13.664;2023-02-15T13:50:56;7.00;;;6.18;;
25129;SDS011;13308;50.860;13.664;2023-02-15T13:56:42;7.65;;;6.38;;
25129;SDS011;13308;50.860;13.664;2023-02-15T13:59:47;8.57;;;6.85;;
25129;SDS011;13308;50.860;13.664;2023-02-15T14:02:43;7.35;;;6.45;;
25129;SDS011;13308;50.860;13.664;2023-02-15T14:05:47;7.13;;;6.32;;
25129;SDS011;13308;50.860;13.664;2023-02-15T14:09:23;7.13;;;6.38;;
25129;SDS011;13308;50.860;13.664;2023-02-15T14:14:47;7.43;;;6.25;;
25129;SDS011;13308;50.860;13.664;2023-02-15T14:17:41;7.53;;;6.50;;
25129;SDS011;13308;50.860;13.664;2023-02-15T14:20:25;7.32;;;6.20;;
25129;SDS011;13308;50.860;13.664;2023-02-15T14:23:22;7.47;;;6.78;;
25129;SDS011;13308;50.860;13.664;2023-02-15T14:26:10;8.60;;;6.63;;
25129;SDS011;13308;50.860;13.664;2023-02-15T14:28:51;6.95;;;6.30;;
25129;SDS011;13308;50.860;13.664;2023-02-15T14:31:43;7.15;;;6.45;;
25129;SDS011;13308;50.860;13.664;2023-02-15T14:34:18;6.78;;;6.07;;
25129;SDS011;13308;50.860;13.664;2023-02-15T14:36:47;7.95;;;6.60;;
25129;SDS011;13308;50.860;13.664;2023-02-15T14:42:24;8.13;;;6.70;;
25129;SDS011;13308;50.860;13.664;2023-02-15T14:45:04;7.88;;;7.00;;
25129;SDS011;13308;50.860;13.664;2023-02-15T14:47:47;10.02;;;7.53;;
25129;SDS011;13308;50.860;13.664;2023-02-15T14:58:35;9.88;;;6.60;;
25129;SDS011;13308;50.860;13.664;2023-02-15T15:01:29;12.65;;;7.43;;
25129;SDS011;13308;50.860;13.664;2023-02-15T15:04:06;9.50;;;7.20;;
25129;SDS011;13308;50.860;13.664;2023-02-15T15:06:38;12.38;;;7.32;;
25129;SDS011;13308;50.860;13.664;2023-02-15T15:09:20;14.70;;;8.07;;
25129;SDS011;13308;50.860;13.664;2023-02-15T15:11:50;18.65;;;10.55;;
25129;SDS011;13308;50.860;13.664;2023-02-15T15:17:01;11.32;;;8.15;;
25129;SDS011;13308;50.860;13.664;2023-02-15T15:22:21;15.32;;;9.95;;
25129;SDS011;13308;50.860;13.664;2023-02-15T15:25:10;13.35;;;8.82;;
25129;SDS011;13308;50.860;13.664;2023-02-15T15:27:39;16.52;;;9.75;;
25129;SDS011;13308;50.860;13.664;2023-02-15T15:32:44;12.65;;;7.68;;
25129;SDS011;13308;50.860;13.664;2023-02-15T15:35:33;19.23;;;12.10;;
25129;SDS011;13308;50.860;13.664;2023-02-15T15:38:29;21.20;;;11.88;;
25129;SDS011;13308;50.860;13.664;2023-02-15T15:49:37;19.88;;;9.32;;
25129;SDS011;13308;50.860;13.664;2023-02-15T15:52:12;17.70;;;12.35;;
25129;SDS011;13308;50.860;13.664;2023-02-15T15:54:40;10.50;;;7.65;;
25129;SDS011;13308;50.860;13.664;2023-02-15T15:57:11;10.95;;;6.82;;
25129;SDS011;13308;50.860;13.664;2023-02-15T15:59:52;13.20;;;8.27;;
25129;SDS011;13308;50.860;13.664;2023-02-15T16:02:18;15.50;;;9.30;;
25129;SDS011;13308;50.860;13.664;2023-02-15T16:04:44;11.70;;;6.13;;
25129;SDS011;13308;50.860;13.664;2023-02-15T16:07:16;7.50;;;5.88;;
25129;SDS011;13308;50.860;13.664;2023-02-15T16:09:54;6.22;;;5.22;;
25129;SDS011;13308;50.860;13.664;2023-02-15T16:12:24;12.55;;;6.07;;
25129;SDS011;13308;50.860;13.664;2023-02-15T16:14:51;11.52;;;6.65;;
25129;SDS011;13308;50.860;13.664;2023-02-15T16:17:25;9.82;;;6.15;;
25129;SDS011;13308;50.860;13.664;2023-02-15T16:19:56;10.98;;;5.97;;
25129;SDS011;13308;50.860;13.664;2023-02-15T16:22:40;10.32;;;5.82;;
25129;SDS011;13308;50.860;13.664;2023-02-15T16:25:26;8.32;;;5.60;;
25129;SDS011;13308;50.860;13.664;2023-02-15T16:28:12;12.85;;;6.75;;
25129;SDS011;13308;50.860;13.664;2023-02-15T16:30:39;11.65;;;6.63;;
25129;SDS011;13308;50.860;13.664;2023-02-15T16:33:08;7.32;;;5.47;;
25129;SDS011;13308;50.860;13.664;2023-02-15T16:35:34;8.60;;;5.40;;
25129;SDS011;13308;50.860;13.664;2023-02-15T16:38:02;13.90;;;5.53;;
25129;SDS011;13308;50.860;13.664;2023-02-15T16:40:31;7.65;;;5.22;;
25129;SDS011;13308;50.860;13.664;2023-02-15T16:43:06;13.38;;;6.88;;
25129;SDS011;13308;50.860;13.664;2023-02-15T16:45:38;9.32;;;5.47;;
25129;SDS011;13308;50.860;13.664;2023-02-15T16:48:08;14.95;;;8.25;;
25129;SDS011;13308;50.860;13.664;2023-02-15T16:50:41;8.52;;;5.10;;
25129;SDS011;13308;50.860;13.664;2023-02-15T16:53:14;8.88;;;5.18;;
25129;SDS011;13308;50.860;13.664;2023-02-15T16:55:43;10.02;;;6.20;;
25129;SDS011;13308;50.860;13.664;2023-02-15T16:58:16;8.13;;;5.03;;
25129;SDS011;13308;50.860;13.664;2023-02-15T17:00:42;8.40;;;4.90;;
25129;SDS011;13308;50.860;13.664;2023-02-15T17:13:34;11.73;;;6.22;;
25129;SDS011;13308;50.860;13.664;2023-02-15T17:18:25;10.27;;;5.40;;
25129;SDS011;13308;50.860;13.664;2023-02-15T17:20:54;7.97;;;5.20;;
25129;SDS011;13308;50.860;13.664;2023-02-15T17:23:33;8.65;;;5.82;;
25129;SDS011;13308;50.860;13.664;2023-02-15T17:26:01;8.80;;;5.50;;
25129;SDS011;13308;50.860;13.664;2023-02-15T17:28:45;14.32;;;6.55;;
25129;SDS011;13308;50.860;13.664;2023-02-15T17:31:12;15.10;;;6.50;;
25129;SDS011;13308;50.860;13.664;2023-02-15T17:33:40;12.93;;;6.93;;
25129;SDS011;13308;50.860;13.664;2023-02-15T17:36:18;12.20;;;6.25;;
25129;SDS011;13308;50.860;13.664;2023-02-15T17:41:21;8.07;;;5.13;;
25129;SDS011;13308;50.860;13.664;2023-02-15T17:43:46;10.50;;;5.28;;
25129;SDS011;13308;50.860;13.664;2023-02-15T17:46:12;11.18;;;6.82;;
25129;SDS011;13308;50.860;13.664;2023-02-15T17:48:37;9.02;;;5.93;;
25129;SDS011;13308;50.860;13.664;2023-02-15T17:51:06;9.45;;;6.00;;
25129;SDS011;13308;50.860;13.664;2023-02-15T17:53:36;9.18;;;5.22;;
25129;SDS011;13308;50.860;13.664;2023-02-15T17:56:02;9.25;;;5.75;;
25129;SDS011;13308;50.860;13.664;2023-02-15T17:58:34;9.98;;;6.47;;
25129;SDS011;13308;50.860;13.664;2023-02-15T18:01:05;11.35;;;6.80;;
25129;SDS011;13308;50.860;13.664;2023-02-15T18:03:51;14.88;;;8.73;;
25129;SDS011;13308;50.860;13.664;2023-02-15T18:06:37;8.13;;;6.22;;
25129;SDS011;13308;50.860;13.664;2023-02-15T18:09:22;10.00;;;6.63;;
25129;SDS011;13308;50.860;13.664;2023-02-15T18:12:23;7.57;;;4.68;;
25129;SDS011;13308;50.860;13.664;2023-02-15T18:14:50;9.55;;;5.70;;
25129;SDS011;13308;50.860;13.664;2023-02-15T18:17:17;12.82;;;6.50;;
25129;SDS011;13308;50.860;13.664;2023-02-15T18:19:43;12.85;;;8.50;;
25129;SDS011;13308;50.860;13.664;2023-02-15T18:22:13;11.70;;;7.32;;
25129;SDS011;13308;50.860;13.664;2023-02-15T18:24:41;15.82;;;8.45;;
25129;SDS011;13308;50.860;13.664;2023-02-15T18:27:07;11.23;;;7.03;;
25129;SDS011;13308;50.860;13.664;2023-02-15T18:29:32;10.77;;;5.43;;
25129;SDS011;13308;50.860;13.664;2023-02-15T18:31:58;9.05;;;5.50;;
25129;SDS011;13308;50.860;13.664;2023-02-15T18:34:32;9.93;;;6.07;;
25129;SDS011;13308;50.860;13.664;2023-02-15T18:37:02;9.38;;;6.18;;
25129;SDS011;13308;50.860;13.664;2023-02-15T18:39:35;7.82;;;5.30;;
25129;SDS011;13308;50.860;13.664;2023-02-15T18:42:04;6.47;;;4.35;;
25129;SDS011;13308;50.860;13.664;2023-02-15T18:44:33;8.10;;;5.15;;
25129;SDS011;13308;50.860;13.664;2023-02-15T18:46:58;6.43;;;4.38;;
25129;SDS011;13308;50.860;13.664;2023-02-15T18:49:23;9.73;;;4.20;;
25129;SDS011;13308;50.860;13.664;2023-02-15T18:51:49;8.30;;;5.05;;
25129;SDS011;13308;50.860;13.664;2023-02-15T18:54:16;7.57;;;5.15;;
25129;SDS011;13308;50.860;13.664;2023-02-15T18:56:44;7.10;;;4.57;;
25129;SDS011;13308;50.860;13.664;2023-02-15T18:59:16;6.93;;;4.68;;
25129;SDS011;13308;50.860;13.664;2023-02-15T19:01:42;6.85;;;4.18;;
25129;SDS011;13308;50.860;13.664;2023-02-15T19:04:08;6.47;;;4.32;;
25129;SDS011;13308;50.860;13.664;2023-02-15T19:06:33;6.07;;;3.97;;
25129;SDS011;13308;50.860;13.664;2023-02-15T19:08:58;6.68;;;4.10;;
25129;SDS011;13308;50.860;13.664;2023-02-15T19:11:24;9.05;;;4.50;;
25129;SDS011;13308;50.860;13.664;2023-02-15T19:13:52;6.75;;;4.53;;
25129;SDS011;13308;50.860;13.664;2023-02-15T19:16:27;6.95;;;4.90;;
25129;SDS011;13308;50.860;13.664;2023-02-15T19:18:55;6.22;;;4.68;;
25129;SDS011;13308;50.860;13.664;2023-02-15T19:21:20;5.60;;;4.22;;
25129;SDS011;13308;50.860;13.664;2023-02-15T19:23:48;7.07;;;3.45;;
25129;SDS011;13308;50.860;13.664;2023-02-15T19:26:21;7.03;;;3.78;;
25129;SDS011;13308;50.860;13.664;2023-02-15T19:28:48;5.82;;;3.67;;
